Time;durP1;ratioP1;P1;durP2;ratioP2;P2;SDS_P1;SDS_P2;PMS_P1;PMS_P2;Temp;Humidity;BMP_temperature;BMP_pressure;BME280_temperature;BME280_humidity;BME280_pressure;Samples;Min_cycle;Max_cycle;Signal;HPM_P1;HPM_P2
2022/09/12 00:02:03;;;;;;;6.90;6.20;;;12.00;99.90;;;11.47;100.00;98194.78;5035759;28;20046;-68
2022/09/12 00:04:30;;;;;;;6.63;5.93;;;12.10;99.90;;;11.53;100.00;98198.91;5005566;28;20054;-69
2022/09/12 00:06:57;;;;;;;8.57;6.35;;;12.10;99.90;;;11.42;100.00;98194.06;5001810;28;20816;-70
2022/09/12 00:09:23;;;;;;;8.93;6.90;;;12.10;99.90;;;11.37;100.00;98185.59;5003865;28;20053;-70
2022/09/12 00:11:50;;;;;;;9.02;7.18;;;12.00;99.90;;;11.30;100.00;98181.53;4998020;28;20137;-70
2022/09/12 00:14:18;;;;;;;9.65;7.90;;;12.00;99.90;;;11.35;100.00;98182.22;5004508;28;20049;-70
2022/09/12 00:16:45;;;;;;;11.82;7.43;;;12.00;99.90;;;11.19;100.00;98181.06;4999539;28;20049;-70
2022/09/12 00:19:12;;;;;;;9.82;8.02;;;12.00;99.90;;;11.11;100.00;98173.56;5004577;28;20052;-69
2022/09/12 00:21:40;;;;;;;10.27;7.18;;;12.00;99.90;;;11.21;100.00;98177.50;5001381;28;20132;-69
2022/09/12 00:24:09;;;;;;;9.13;7.28;;;11.90;99.90;;;11.10;100.00;98172.69;5020459;28;20046;-70
2022/09/12 00:26:36;;;;;;;9.57;5.72;;;11.90;99.90;;;11.22;100.00;98180.94;5036704;28;20088;-70
2022/09/12 00:29:03;;;;;;;12.23;7.28;;;11.90;99.90;;;11.18;100.00;98181.97;5035514;28;20073;-70
2022/09/12 00:31:30;;;;;;;9.15;7.70;;;11.90;99.90;;;11.21;100.00;98181.88;5035606;28;20061;-71
2022/09/12 00:34:01;;;;;;;7.13;6.18;;;11.90;99.90;;;11.24;100.00;98182.63;5003354;28;20471;-71
2022/09/12 00:36:29;;;;;;;9.02;7.13;;;11.80;99.90;;;11.10;100.00;98183.06;5002441;28;20061;-71
2022/09/12 00:38:56;;;;;;;10.30;7.80;;;11.80;99.90;;;10.97;100.00;98178.38;5002921;28;20518;-70
2022/09/12 00:41:36;;;;;;;11.20;7.10;;;11.80;99.90;;;11.00;100.00;98189.50;5038106;28;20049;-70
2022/09/12 00:44:09;;;;;;;11.48;7.15;;;11.80;99.90;;;11.03;100.00;98192.00;5007504;28;20049;-71
2022/09/12 00:46:55;;;;;;;;;;;11.80;99.90;;;11.00;100.00;98186.91;5009743;28;20076;-71
2022/09/12 00:49:30;;;;;;;10.50;7.90;;;11.80;99.90;;;11.05;100.00;98186.75;5007466;28;19926;-71
2022/09/12 00:52:14;;;;;;;9.00;7.30;;;11.80;99.90;;;10.93;100.00;98198.41;5004848;28;20069;-70
2022/09/12 00:54:51;;;;;;;11.77;7.70;;;11.70;99.90;;;10.93;100.00;98198.41;5002908;28;20049;-71
2022/09/12 00:57:22;;;;;;;9.82;5.90;;;11.70;99.90;;;11.05;100.00;98187.59;5031986;28;20042;-70
2022/09/12 00:59:58;;;;;;;6.60;5.85;;;11.70;99.90;;;11.17;100.00;98188.06;5017486;28;20523;-70
2022/09/12 01:02:26;;;;;;;11.02;5.82;;;11.70;99.90;;;11.17;100.00;98190.66;5033808;28;20045;-70
2022/09/12 01:04:54;;;;;;;6.53;5.47;;;11.70;99.90;;;11.24;100.00;98186.94;5032524;28;20056;-69
2022/09/12 01:07:24;;;;;;;6.38;5.20;;;11.80;99.90;;;11.23;100.00;98183.50;5035417;28;20057;-70
2022/09/12 01:09:51;;;;;;;8.10;5.40;;;11.80;99.90;;;11.13;100.00;98181.28;5003089;28;20045;-69
2022/09/12 01:12:18;;;;;;;9.00;8.05;;;11.70;99.90;;;11.04;100.00;98172.09;5035126;28;20131;-70
2022/09/12 01:14:45;;;;;;;6.10;5.03;;;11.70;99.90;;;11.04;100.00;98162.53;5033837;28;20649;-70
2022/09/12 01:17:14;;;;;;;7.13;5.13;;;11.70;99.90;;;11.13;100.00;98158.75;4999537;28;21556;-69
2022/09/12 01:20:07;;;;;;;5.07;4.40;;;11.60;99.90;;;11.07;100.00;98162.41;5001755;28;20058;-69
2022/09/12 01:23:11;;;;;;;5.95;5.15;;;11.70;99.90;;;10.93;100.00;98145.63;5031913;28;20064;-70
2022/09/12 01:25:52;;;;;;;6.40;5.22;;;11.60;99.90;;;10.95;100.00;98134.28;5027809;28;20054;-68
2022/09/12 01:28:54;;;;;;;10.73;6.20;;;11.60;99.90;;;10.91;100.00;98131.84;4998212;28;20062;-71
2022/09/12 01:31:39;;;;;;;7.55;5.25;;;11.60;99.90;;;10.88;100.00;98128.44;5000644;28;20503;-70
2022/09/12 01:34:25;;;;;;;6.80;5.35;;;11.50;99.90;;;10.75;100.00;98126.34;5002757;28;20103;-70
2022/09/12 01:37:12;;;;;;;6.15;4.95;;;11.40;99.90;;;10.84;100.00;98124.25;5032649;28;20517;-70
2022/09/12 01:39:57;;;;;;;7.82;5.22;;;11.40;99.90;;;10.78;100.00;98115.84;5002345;28;20053;-68
2022/09/12 01:42:45;;;;;;;13.35;5.38;;;11.40;99.90;;;10.79;100.00;98118.38;5034734;28;20081;-70
2022/09/12 01:45:19;;;;;;;6.43;4.22;;;11.40;99.90;;;10.67;100.00;98104.09;5035712;28;20057;-70
2022/09/12 01:47:57;;;;;;;7.47;4.90;;;11.40;99.90;;;10.67;100.00;98116.19;4996315;28;20579;-69
2022/09/12 01:50:30;;;;;;;10.32;6.88;;;11.30;99.90;;;10.60;100.00;98112.94;5014175;28;20100;-69
2022/09/12 01:53:08;;;;;;;9.32;6.97;;;11.30;99.90;;;10.55;100.00;98107.06;4995916;28;20435;-70
2022/09/12 01:55:54;;;;;;;6.35;5.00;;;11.20;99.90;;;10.51;100.00;98108.06;5001769;28;20057;-70
2022/09/12 01:58:28;;;;;;;7.13;6.10;;;11.20;99.90;;;10.51;100.00;98104.63;5033063;28;20491;-70
2022/09/12 02:01:06;;;;;;;8.27;5.38;;;11.10;99.90;;;10.44;100.00;98099.66;5003485;28;20125;-70
2022/09/12 02:03:59;;;;;;;10.18;5.43;;;11.10;99.90;;;10.52;100.00;98109.78;5015786;28;20060;-70
2022/09/12 02:06:51;;;;;;;9.20;5.60;;;11.10;99.90;;;10.57;100.00;98101.84;5000887;28;20050;-71
2022/09/12 02:09:45;;;;;;;7.35;4.90;;;11.10;99.90;;;10.54;100.00;98097.63;5002889;28;20057;-71
2022/09/12 02:12:18;;;;;;;8.23;4.68;;;11.20;99.90;;;10.39;100.00;98087.75;5001146;28;20056;-71
2022/09/12 02:14:51;;;;;;;8.27;5.10;;;11.10;99.90;;;10.32;100.00;98092.28;5035440;28;20053;-70
2022/09/12 02:17:22;;;;;;;9.65;5.88;;;11.10;99.90;;;10.36;100.00;98080.06;4998106;28;20065;-69
2022/09/12 02:20:01;;;;;;;9.95;5.22;;;11.00;99.90;;;10.23;100.00;98087.38;5030749;28;20041;-69
2022/09/12 02:22:30;;;;;;;12.10;5.63;;;10.90;99.90;;;10.24;100.00;98081.28;5046635;28;20053;-70
2022/09/12 02:25:00;;;;;;;16.77;7.93;;;10.90;99.90;;;10.31;100.00;98088.00;5015324;28;20049;-69
2022/09/12 02:27:40;;;;;;;7.72;5.32;;;10.90;99.90;;;10.25;100.00;98090.75;5032692;28;20058;-71
2022/09/12 02:30:09;;;;;;;7.20;4.88;;;10.90;99.90;;;10.22;100.00;98083.09;5035646;28;20139;-70
2022/09/12 02:32:48;;;;;;;10.88;6.82;;;10.90;99.90;;;10.15;100.00;98087.63;5033388;28;20046;-70
2022/09/12 02:35:29;;;;;;;8.18;6.28;;;10.90;99.90;;;10.29;100.00;98091.56;5034577;28;20092;-70
2022/09/12 02:38:37;;;;;;;9.48;6.82;;;10.90;99.90;;;10.32;100.00;98087.09;5012906;28;20046;-71
2022/09/12 02:41:04;;;;;;;6.93;4.97;;;10.90;99.90;;;10.29;100.00;98083.78;4999542;28;20076;-73
2022/09/12 02:43:31;;;;;;;8.73;4.65;;;10.90;99.90;;;10.27;100.00;98084.63;5016953;28;20514;-72
2022/09/12 02:45:58;;;;;;;9.27;5.75;;;10.90;99.90;;;10.21;100.00;98081.38;4996717;28;20048;-72
2022/09/12 02:48:36;;;;;;;7.93;4.90;;;10.90;99.90;;;10.21;100.00;98074.44;4998239;28;20051;-72
2022/09/12 02:51:03;;;;;;;6.13;4.68;;;10.80;99.90;;;10.28;100.00;98069.91;5030380;28;21438;-72
2022/09/12 02:53:32;;;;;;;6.82;5.18;;;10.80;99.90;;;10.19;100.00;98055.47;5000605;28;20057;-72
2022/09/12 02:55:59;;;;;;;8.27;5.18;;;10.80;99.90;;;10.05;100.00;98050.75;5001171;28;20052;-72
2022/09/12 02:58:30;;;;;;;9.35;5.40;;;10.80;99.90;;;10.17;100.00;98053.84;5000027;28;20157;-73
2022/09/12 03:01:34;;;;;;;6.30;5.20;;;10.80;99.90;;;10.22;100.00;98058.00;5001597;28;20046;-72
2022/09/12 03:04:42;;;;;;;8.02;5.25;;;10.80;99.90;;;10.14;100.00;98048.75;5001704;28;20058;-72
2022/09/12 03:07:41;;;;;;;7.10;4.57;;;10.80;99.90;;;9.98;100.00;98051.00;5033123;28;20804;-72
2022/09/12 03:10:13;;;;;;;6.75;4.82;;;10.70;99.90;;;10.02;100.00;98042.25;5033752;28;20507;-72
2022/09/12 03:13:14;;;;;;;7.70;5.25;;;10.70;99.90;;;10.00;100.00;98051.81;5002037;28;20050;-72
2022/09/12 03:16:01;;;;;;;5.30;4.45;;;10.70;99.90;;;9.96;100.00;98045.88;5002497;28;20057;-72
2022/09/12 03:18:44;;;;;;;6.05;4.65;;;10.60;99.90;;;9.98;100.00;98049.25;5012071;28;20050;-72
2022/09/12 03:21:42;;;;;;;9.75;4.57;;;10.60;99.90;;;9.88;100.00;98040.09;5002060;28;20054;-72
2022/09/12 03:24:57;;;;;;;5.65;4.50;;;10.60;99.90;;;9.99;100.00;98052.69;5033805;28;20245;-73
2022/09/12 03:27:52;;;;;;;6.65;5.25;;;10.60;99.90;;;9.88;100.00;98047.88;4998274;28;20125;-72
2022/09/12 03:30:19;;;;;;;8.05;5.15;;;10.50;99.90;;;9.83;100.00;98044.59;5000004;28;20519;-72
2022/09/12 03:32:52;;;;;;;7.93;4.70;;;10.50;99.90;;;9.74;100.00;98040.53;5030901;28;20133;-72
2022/09/12 03:35:21;;;;;;;;;;;10.50;99.90;;;9.71;100.00;98044.97;5033482;28;20076;-72
2022/09/12 03:37:51;;;;;;;7.63;4.55;;;10.40;99.90;;;9.68;100.00;98042.47;5031632;28;19929;-72
2022/09/12 03:40:18;;;;;;;9.00;4.70;;;10.40;99.90;;;9.75;100.00;98046.56;5034153;28;20049;-72
2022/09/12 03:42:45;;;;;;;6.18;5.45;;;10.40;99.90;;;9.75;100.00;98046.56;4999262;28;20499;-71
2022/09/12 03:45:13;;;;;;;10.23;6.20;;;10.40;99.90;;;9.77;100.00;98047.38;5002918;28;20042;-71
2022/09/12 03:47:40;;;;;;;7.53;5.97;;;10.40;99.90;;;9.77;100.00;98048.22;5001258;28;20049;-72
2022/09/12 03:50:07;;;;;;;7.00;5.60;;;10.30;99.90;;;9.68;100.00;98053.69;4999770;28;20046;-72
2022/09/12 03:52:34;;;;;;;13.32;5.68;;;10.30;99.90;;;9.64;100.00;98052.91;5002561;28;20065;-71
2022/09/12 03:55:02;;;;;;;7.70;5.43;;;10.40;99.90;;;9.64;100.00;98052.91;5036255;28;20373;-72
2022/09/12 03:57:29;;;;;;;10.50;5.00;;;10.30;99.90;;;9.61;100.00;98052.19;5004593;28;20046;-72
2022/09/12 03:59:55;;;;;;;6.85;4.80;;;10.30;99.90;;;9.64;100.00;98052.91;5003823;28;20061;-73
2022/09/12 04:02:22;;;;;;;6.32;4.97;;;10.30;99.90;;;9.69;100.00;98057.13;5035173;28;20049;-72
2022/09/12 04:04:49;;;;;;;7.13;4.75;;;10.30;99.90;;;9.66;100.00;98055.47;5005446;28;20088;-71
2022/09/12 04:07:16;;;;;;;5.60;4.40;;;10.30;99.90;;;9.66;100.00;98045.09;5034018;28;20054;-72
2022/09/12 04:09:43;;;;;;;5.30;4.40;;;10.30;99.90;;;9.63;100.00;98050.41;5002734;28;20061;-73
2022/09/12 04:12:11;;;;;;;7.03;5.20;;;10.30;99.90;;;9.56;100.00;98041.97;5003537;28;20528;-72
2022/09/12 04:14:38;;;;;;;11.13;5.95;;;10.30;99.90;;;9.60;100.00;98050.47;5004305;28;20061;-72
2022/09/12 04:17:05;;;;;;;7.22;6.10;;;10.20;99.90;;;9.61;100.00;98041.81;5005698;28;20045;-72
2022/09/12 04:19:33;;;;;;;7.07;5.22;;;10.20;99.90;;;9.53;100.00;98046.38;5038197;28;20042;-72
2022/09/12 04:21:59;;;;;;;7.22;5.07;;;10.20;99.90;;;9.43;100.00;98038.88;4998317;28;20054;-71
2022/09/12 04:24:26;;;;;;;5.35;4.60;;;10.20;99.90;;;9.47;100.00;98037.06;5000894;28;20053;-69
2022/09/12 04:26:53;;;;;;;9.75;5.25;;;10.20;99.90;;;9.52;100.00;98036.94;4998572;28;20054;-71
2022/09/12 04:29:21;;;;;;;8.10;5.18;;;10.20;99.90;;;9.50;100.00;98033.53;5024989;28;20050;-69
2022/09/12 04:31:48;;;;;;;5.53;4.68;;;10.20;99.90;;;9.48;100.00;98035.31;5001738;28;20049;-71
2022/09/12 04:34:15;;;;;;;10.35;6.65;;;10.10;99.90;;;9.32;100.00;98037.53;4999046;28;20049;-69
2022/09/12 04:36:42;;;;;;;7.75;4.78;;;10.10;99.90;;;9.36;100.00;98034.78;5001140;28;20049;-68
2022/09/12 04:39:10;;;;;;;7.20;5.53;;;10.00;99.90;;;9.44;100.00;98031.97;4996749;28;20622;-68
2022/09/12 04:41:39;;;;;;;6.18;4.60;;;10.00;99.90;;;9.46;100.00;98027.59;5025343;28;20065;-71
2022/09/12 04:44:12;;;;;;;8.85;5.20;;;10.10;99.90;;;9.34;100.00;98018.44;5026283;28;20064;-69
2022/09/12 04:46:45;;;;;;;6.35;4.45;;;10.10;99.90;;;9.37;100.00;98014.91;4998192;28;20049;-69
2022/09/12 04:49:15;;;;;;;6.40;4.85;;;10.00;99.90;;;9.35;100.00;98008.94;4990421;28;20429;-70
2022/09/12 04:51:42;;;;;;;5.75;4.97;;;10.00;99.90;;;9.34;100.00;98020.19;4991682;28;20065;-70
2022/09/12 04:54:17;;;;;;;6.65;4.80;;;10.00;99.90;;;9.36;100.00;98015.81;5024111;28;20178;-69
2022/09/12 04:56:47;;;;;;;6.50;5.07;;;10.00;99.90;;;9.38;100.00;98012.28;4996828;28;20053;-69
2022/09/12 04:59:17;;;;;;;8.70;5.95;;;10.00;99.90;;;9.33;100.00;98010.75;4992090;28;20695;-70
2022/09/12 05:01:44;;;;;;;5.00;4.43;;;10.10;99.90;;;9.37;100.00;98015.78;5010347;28;20566;-71
2022/09/12 05:04:12;;;;;;;7.38;4.78;;;10.10;99.90;;;9.35;100.00;98009.81;5025481;28;20058;-69
2022/09/12 05:06:40;;;;;;;7.85;4.95;;;10.10;99.90;;;9.38;100.00;98003.66;4996612;28;20053;-69
2022/09/12 05:09:10;;;;;;;6.88;4.40;;;10.00;99.90;;;9.38;100.00;98011.44;5027219;28;20057;-68
2022/09/12 05:11:41;;;;;;;6.55;4.65;;;10.00;99.90;;;9.43;100.00;98004.38;4989260;28;20042;-70
2022/09/12 05:14:31;;;;;;;5.88;4.70;;;10.10;99.90;;;9.40;100.00;98004.47;5018348;28;20060;-70
2022/09/12 05:17:00;;;;;;;8.93;3.58;;;10.10;99.90;;;9.43;100.00;98004.38;4992994;28;20061;-69
2022/09/12 05:19:29;;;;;;;5.40;4.15;;;10.10;99.90;;;9.36;100.00;98002.88;4984027;28;20057;-70
2022/09/12 05:21:56;;;;;;;6.43;5.65;;;10.20;99.90;;;9.38;100.00;98003.66;4994951;28;20171;-70
2022/09/12 05:24:24;;;;;;;9.15;6.30;;;10.20;99.90;;;9.43;100.00;98000.03;4995228;28;20053;-70
2022/09/12 05:26:51;;;;;;;13.57;6.25;;;10.20;99.90;;;9.43;100.00;98004.38;5026120;28;20069;-69
2022/09/12 05:29:18;;;;;;;8.48;6.65;;;10.20;99.90;;;9.49;100.00;98011.97;5027101;28;20145;-70
2022/09/12 05:31:48;;;;;;;7.60;5.80;;;10.20;99.90;;;9.49;100.00;98017.13;4995698;28;20057;-69
2022/09/12 05:34:15;;;;;;;7.47;5.43;;;10.30;99.90;;;9.45;100.00;98019.88;4995906;28;20056;-69
2022/09/12 05:36:42;;;;;;;7.95;5.80;;;10.30;99.90;;;9.42;100.00;98015.63;4994135;28;20046;-70
2022/09/12 05:39:09;;;;;;;6.95;5.97;;;10.30;99.90;;;9.41;100.00;98021.69;4996771;28;20549;-70
2022/09/12 05:41:36;;;;;;;8.98;6.47;;;10.20;99.90;;;9.46;100.00;98025.00;4996313;28;20053;-70
2022/09/12 05:44:06;;;;;;;7.05;4.80;;;10.30;99.90;;;9.59;100.00;98030.66;4994703;28;20053;-70
2022/09/12 05:46:39;;;;;;;9.40;6.18;;;10.40;99.90;;;9.65;100.00;98035.66;5028264;28;20061;-71
2022/09/12 05:49:12;;;;;;;9.57;6.40;;;10.40;99.90;;;9.80;100.00;98032.56;5006709;28;20053;-69
2022/09/12 05:51:43;;;;;;;7.70;5.72;;;10.50;99.90;;;9.88;100.00;98036.66;4994969;28;20388;-69
2022/09/12 05:54:14;;;;;;;7.22;4.57;;;10.70;99.90;;;9.83;100.00;98032.47;4994672;28;20046;-70
2022/09/12 05:56:43;;;;;;;8.07;4.88;;;10.70;99.90;;;10.00;100.00;98025.88;5027662;28;20057;-70
2022/09/12 05:59:20;;;;;;;6.65;5.32;;;10.80;99.90;;;10.07;100.00;98029.13;4994887;28;20057;-69
2022/09/12 06:01:47;;;;;;;7.85;4.25;;;10.90;99.90;;;10.14;100.00;98009.84;5024913;28;20050;-69
2022/09/12 06:04:15;;;;;;;5.80;4.35;;;11.00;99.90;;;10.03;100.00;98023.16;4994161;28;20061;-69
2022/09/12 06:06:44;;;;;;;5.65;4.40;;;11.10;99.90;;;10.07;100.00;98016.16;4993857;28;20057;-70
2022/09/12 06:09:14;;;;;;;6.90;4.72;;;11.10;99.90;;;10.14;100.00;98015.03;4992390;28;20049;-70
2022/09/12 06:11:41;;;;;;;6.75;5.85;;;11.10;99.90;;;10.41;100.00;98015.88;4994819;28;20476;-69
2022/09/12 06:14:11;;;;;;;10.95;8.20;;;11.20;99.90;;;10.52;100.00;98018.94;4992144;28;20199;-71
2022/09/12 06:16:38;;;;;;;9.88;7.95;;;11.40;99.90;;;10.72;100.00;98019.97;4992459;28;20526;-71
2022/09/12 06:19:12;;;;;;;8.70;7.30;;;11.60;99.90;;;10.73;100.00;98019.09;4990868;28;20136;-69
2022/09/12 06:21:39;;;;;;;8.63;6.82;;;11.70;99.90;;;10.70;100.00;98003.59;4996310;28;20101;-70
2022/09/12 06:24:06;;;;;;;7.68;6.72;;;11.70;99.90;;;10.82;100.00;98017.00;4997565;28;20152;-70
2022/09/12 06:26:33;;;;;;;12.73;9.50;;;11.70;99.90;;;10.95;100.00;98030.38;5009491;28;20053;-69
2022/09/12 06:29:01;;;;;;;9.68;7.70;;;11.80;99.90;;;11.14;100.00;98048.72;4992480;28;20137;-70
2022/09/12 06:31:32;;;;;;;11.25;10.02;;;12.00;99.90;;;11.44;100.00;98061.47;5026791;28;20053;-70
2022/09/12 06:34:03;;;;;;;15.23;13.63;;;12.20;99.90;;;11.79;100.00;98077.44;4996095;28;20046;-70
2022/09/12 06:36:35;;;;;;;19.13;14.75;;;12.40;99.90;;;12.12;100.00;98078.72;4994249;28;20057;-70
2022/09/12 06:39:21;;;;;;;15.40;13.68;;;12.70;99.90;;;12.31;100.00;98081.41;4991806;28;20057;-70
2022/09/12 06:41:51;;;;;;;13.57;12.20;;;13.00;99.90;;;12.51;100.00;98077.13;4994482;28;20125;-70
2022/09/12 06:44:21;;;;;;;14.57;13.00;;;13.20;99.90;;;12.64;100.00;98090.50;5003215;28;20046;-69
2022/09/12 06:46:49;;;;;;;14.35;12.85;;;13.40;99.90;;;12.83;100.00;98086.16;4993606;28;20053;-70
2022/09/12 06:49:16;;;;;;;13.55;10.98;;;13.60;99.90;;;12.97;100.00;98096.81;4990654;28;20161;-70
2022/09/12 06:51:43;;;;;;;13.25;11.23;;;13.80;99.90;;;13.13;100.00;98103.97;4993064;28;20203;-70
2022/09/12 06:54:15;;;;;;;11.75;10.63;;;13.90;99.90;;;13.27;100.00;98109.41;4994385;28;20133;-70
2022/09/12 06:56:43;;;;;;;14.77;10.90;;;14.00;99.90;;;13.42;100.00;98100.09;4990342;28;20057;-69
2022/09/12 06:59:11;;;;;;;13.05;10.48;;;14.20;99.90;;;13.52;100.00;98103.94;5024954;28;20510;-70
2022/09/12 07:01:38;;;;;;;15.23;11.10;;;14.30;99.90;;;13.61;100.00;98110.50;4992486;28;20060;-70
2022/09/12 07:04:06;;;;;;;11.80;10.63;;;14.40;99.90;;;13.74;100.00;98116.84;4993104;28;20395;-70
2022/09/12 07:06:41;;;;;;;11.13;9.98;;;14.50;99.90;;;13.88;100.00;98118.81;5006965;28;20049;-70
2022/09/12 07:09:16;;;;;;;10.70;9.48;;;14.60;99.90;;;14.02;100.00;98118.16;5025799;28;20049;-70
2022/09/12 07:11:45;;;;;;;10.70;9.60;;;14.80;99.90;;;14.14;100.00;98109.75;5024281;28;20053;-71
2022/09/12 07:14:13;;;;;;;12.75;8.77;;;14.90;99.90;;;14.38;100.00;98112.06;4994243;28;20053;-70
2022/09/12 07:16:40;;;;;;;10.80;9.13;;;15.00;99.90;;;14.41;100.00;98101.47;5028266;28;20053;-69
2022/09/12 07:19:07;;;;;;;8.57;7.63;;;15.20;99.90;;;14.26;100.00;98103.06;4991434;28;20046;-71
2022/09/12 07:21:38;;;;;;;10.73;8.07;;;15.20;99.90;;;14.57;100.00;98102.44;4992448;28;20050;-70
2022/09/12 07:24:08;;;;;;;11.00;8.20;;;15.40;99.90;;;14.71;100.00;98098.25;4991789;28;20065;-70
2022/09/12 07:26:35;;;;;;;11.02;8.55;;;15.50;99.90;;;14.80;100.00;98096.03;5024317;28;20053;-70
2022/09/12 07:29:02;;;;;;;10.40;8.63;;;15.60;99.90;;;14.90;100.00;98091.16;4995528;28;20050;-70
2022/09/12 07:31:49;;;;;;;9.43;8.52;;;15.70;99.90;;;14.91;100.00;98077.16;5022151;28;20108;-72
2022/09/12 07:34:16;;;;;;;9.65;8.45;;;15.80;99.90;;;14.99;100.00;98071.56;4996108;28;20057;-69
2022/09/12 07:36:43;;;;;;;7.82;7.03;;;15.80;99.90;;;15.10;100.00;98074.44;4997639;28;20769;-69
2022/09/12 07:39:10;;;;;;;9.18;7.45;;;15.90;99.90;;;15.12;100.00;98058.66;4996606;28;20064;-68
2022/09/12 07:41:37;;;;;;;9.25;7.35;;;16.00;99.90;;;15.20;100.00;98049.50;4995993;28;20396;-69
2022/09/12 07:44:05;;;;;;;7.80;6.32;;;16.00;99.90;;;15.33;100.00;98039.22;5011981;28;20054;-68
2022/09/12 07:46:34;;;;;;;9.43;7.25;;;16.10;99.90;;;15.36;100.00;98028.56;4995079;28;20052;-68
2022/09/12 07:49:02;;;;;;;9.00;6.93;;;16.20;99.90;;;15.54;100.00;98016.25;5025207;28;20141;-67
2022/09/12 07:51:30;;;;;;;6.28;5.68;;;16.40;99.90;;;15.66;100.00;98010.31;5028154;28;20049;-69
2022/09/12 07:53:58;;;;;;;9.38;6.38;;;16.80;99.90;;;15.89;100.00;97995.13;4998248;28;20049;-69
2022/09/12 07:56:26;;;;;;;8.18;5.90;;;17.10;99.90;;;15.92;100.00;97970.53;5027731;28;20058;-68
2022/09/12 07:58:57;;;;;;;9.35;5.97;;;17.30;99.90;;;15.96;100.00;97946.72;4998638;28;20049;-69
2022/09/12 08:01:25;;;;;;;7.47;6.38;;;17.50;99.90;;;16.12;100.00;97923.09;4997233;28;20467;-70
2022/09/12 08:03:58;;;;;;;9.32;5.80;;;17.70;99.90;;;16.28;100.00;97909.91;4998629;28;20083;-69
2022/09/12 08:06:29;;;;;;;8.80;5.93;;;18.00;99.90;;;16.78;100.00;97898.09;4996559;28;20089;-68
2022/09/12 08:08:58;;;;;;;6.25;5.22;;;18.10;99.90;;;17.18;100.00;97868.53;4996896;28;20340;-68
2022/09/12 08:11:27;;;;;;;8.30;5.45;;;18.40;99.90;;;17.84;100.00;97841.41;4996869;28;20065;-70
2022/09/12 08:13:56;;;;;;;6.20;4.75;;;18.80;99.90;;;17.95;100.00;97817.06;4997260;28;20054;-69
2022/09/12 08:16:27;;;;;;;7.00;4.82;;;18.90;99.90;;;18.02;100.00;97791.19;4999257;28;20998;-68
2022/09/12 08:18:54;;;;;;;7.03;4.40;;;19.00;99.90;;;18.42;100.00;97768.19;4996884;28;20054;-68
2022/09/12 08:21:25;;;;;;;7.25;4.30;;;19.30;99.90;;;19.23;100.00;97745.69;5025219;28;20918;-69
2022/09/12 08:23:55;;;;;;;9.85;4.80;;;19.70;99.90;;;19.35;100.00;97738.66;5005038;28;20061;-69
2022/09/12 08:26:23;;;;;;;4.10;3.50;;;19.90;99.90;;;19.59;100.00;97714.84;5006782;28;20144;-68
2022/09/12 08:28:52;;;;;;;6.43;3.38;;;20.30;99.90;;;19.91;100.00;97711.53;4996476;28;20053;-69
2022/09/12 08:31:21;;;;;;;5.45;3.28;;;20.60;99.90;;;19.94;100.00;97712.16;4995882;28;20046;-68
2022/09/12 08:33:48;;;;;;;8.90;3.63;;;21.00;99.90;;;20.09;100.00;97704.00;4999608;28;20042;-70
2022/09/12 08:36:20;;;;;;;3.90;3.25;;;21.10;99.90;;;20.35;100.00;97694.00;5004336;28;20113;-70
2022/09/12 08:38:49;;;;;;;4.80;2.80;;;21.20;99.90;;;20.56;100.00;97688.78;5037599;28;20141;-69
2022/09/12 08:41:29;;;;;;;6.45;2.72;;;21.30;99.90;;;20.59;100.00;97684.13;5000197;28;20057;-70
2022/09/12 08:44:53;;;;;;;6.40;3.15;;;21.50;99.90;;;20.14;100.00;97686.00;5001795;28;20089;-70
2022/09/12 08:47:38;;;;;;;6.40;3.72;;;21.80;99.90;;;20.67;100.00;97686.16;5003405;28;20061;-71
2022/09/12 08:50:25;;;;;;;7.00;3.58;;;21.80;99.90;;;21.08;100.00;97674.78;5037345;28;20053;-70
2022/09/12 08:53:02;;;;;;;5.97;3.15;;;;;;;21.25;100.00;97670.72;5005266;28;20050;-70
2022/09/12 08:55:58;;;;;;;3.33;2.22;;;22.70;99.90;;;22.03;100.00;97654.38;5007073;28;20377;-69
2022/09/12 08:58:28;;;;;;;3.22;2.28;;;23.10;99.90;;;21.71;100.00;97661.53;5035323;28;20054;-70
2022/09/12 09:01:31;;;;;;;6.57;2.30;;;23.50;99.90;;;21.84;100.00;97650.72;5004146;28;20049;-70
2022/09/12 09:04:04;;;;;;;4.95;2.50;;;23.60;99.90;;;22.37;100.00;97649.63;5036300;28;20046;-70
2022/09/12 09:06:42;;;;;;;3.88;2.22;;;23.90;99.90;;;22.66;100.00;97644.34;5036464;28;20108;-70
2022/09/12 09:09:38;;;;;;;3.40;1.80;;;24.30;99.90;;;22.49;100.00;97642.41;5005737;28;20061;-69
2022/09/12 09:12:57;;;;;;;6.40;2.25;;;24.60;99.90;;;21.68;100.00;97645.94;5001452;28;20057;-71
2022/09/12 09:16:00;;;;;;;6.57;1.70;;;24.10;99.90;;;22.20;100.00;97645.81;5004943;28;20056;-71
2022/09/12 09:18:31;;;;;;;5.28;2.45;;;24.00;99.90;;;22.40;100.00;97644.06;5032557;28;20046;-68
2022/09/12 09:21:15;;;;;;;5.57;2.07;;;24.00;99.90;;;23.10;100.00;97639.44;5034906;28;20472;-71
2022/09/12 09:23:49;;;;;;;4.82;2.03;;;24.40;99.90;;;23.24;100.00;97632.88;4998257;28;20057;-70
2022/09/12 09:26:26;;;;;;;5.55;3.30;;;24.70;99.90;;;22.46;100.00;97621.50;5033258;28;20120;-69
2022/09/12 09:28:59;;;;;;;6.90;2.55;;;24.20;99.90;;;22.39;100.00;97625.69;5005831;28;20067;-71
2022/09/12 09:31:38;;;;;;;3.50;2.15;;;24.00;99.90;;;22.69;100.00;97630.84;5003815;28;20054;-69
2022/09/12 09:34:17;;;;;;;6.18;2.17;;;24.50;99.90;;;22.93;100.00;97629.56;5034728;28;20062;-68
2022/09/12 09:37:01;;;;;;;3.38;2.00;;;24.80;99.90;;;23.06;100.00;97631.91;5003211;28;20046;-69
2022/09/12 09:39:39;;;;;;;6.63;2.30;;;25.00;99.90;;;22.93;100.00;97624.28;5034891;28;20053;-69
2022/09/12 09:42:45;;;;;;;3.97;1.60;;;25.10;99.90;;;23.70;100.00;97617.09;5031733;28;20081;-69
2022/09/12 09:45:24;;;;;;;4.75;2.33;;;25.60;99.90;;;24.30;100.00;97617.44;5017320;28;20057;-68
2022/09/12 09:48:16;;;;;;;10.60;2.22;;;25.90;99.90;;;24.14;100.00;97601.38;5003862;28;20061;-69
2022/09/12 09:50:44;;;;;;;3.72;1.95;;;25.50;99.90;;;23.38;100.00;97605.94;4998984;28;20072;-70
2022/09/12 09:53:31;;;;;;;4.05;1.88;;;25.80;99.90;;;23.77;100.00;97594.34;5035398;28;20041;-69
2022/09/12 09:56:04;;;;;;;3.72;1.75;;;25.80;99.90;;;23.45;100.00;97600.06;5003453;28;20770;-69
2022/09/12 09:58:34;;;;;;;3.88;1.92;;;25.80;99.90;;;23.93;100.00;97585.75;5034902;28;20366;-70
2022/09/12 10:01:05;;;;;;;6.25;2.45;;;25.60;99.90;;;23.08;100.00;97590.25;5003474;28;20495;-69
2022/09/12 10:03:39;;;;;;;5.63;2.55;;;25.10;99.90;;;22.72;100.00;97582.94;5034324;28;20062;-68
2022/09/12 10:06:24;;;;;;;3.78;1.95;;;24.80;99.90;;;23.30;100.00;97583.78;5016946;28;20396;-68
2022/09/12 10:09:05;;;;;;;2.90;1.48;;;25.00;99.90;;;22.67;100.00;97579.03;5033426;28;20048;-69
2022/09/12 10:11:32;;;;;;;2.53;1.70;;;24.60;99.90;;;23.56;100.00;97581.28;5000313;28;20420;-69
2022/09/12 10:14:00;;;;;;;4.65;2.50;;;25.20;99.90;;;23.24;100.00;97571.13;5002066;28;20050;-69
2022/09/12 10:16:52;;;;;;;3.50;1.63;;;25.40;99.90;;;23.93;100.00;97570.66;5019641;28;20533;-69
2022/09/12 10:19:36;;;;;;;3.50;1.40;;;26.00;99.90;;;25.48;100.00;97556.09;5004627;28;20053;-70
2022/09/12 10:22:04;;;;;;;3.80;1.92;;;26.80;99.90;;;25.55;100.00;97557.97;5014309;28;20046;-70
2022/09/12 10:24:42;;;;;;;2.88;1.80;;;27.50;99.90;;;24.56;100.00;97551.22;5002845;28;20046;-71
2022/09/12 10:27:12;;;;;;;1.88;0.85;;;27.60;99.90;;;25.09;100.00;97549.44;5034725;28;20423;-71
2022/09/12 10:30:03;;;;;;;1.85;0.98;;;27.00;99.90;;;24.13;100.00;97544.00;5000783;28;20045;-70
2022/09/12 10:32:39;;;;;;;2.63;0.70;;;26.60;99.90;;;24.13;100.00;97544.88;5032077;28;20065;-71
2022/09/12 10:35:20;;;;;;;1.75;0.90;;;25.80;99.90;;;22.21;100.00;97544.41;5035215;28;20661;-71
2022/09/12 10:37:54;;;;;;;1.00;0.70;;;;;;;22.44;100.00;97547.63;4998366;28;20046;-70
2022/09/12 10:40:35;;;;;;;1.75;0.85;;;24.60;99.90;;;23.36;100.00;97548.78;4995035;28;20042;-70
2022/09/12 10:43:15;;;;;;;2.97;0.90;;;24.40;99.90;;;23.59;100.00;97541.28;5000560;28;20048;-70